createdAt,value
2023-05-12T00:00:59.761Z,4.97
2023-05-12T00:03:29.327Z,4.20
2023-05-12T00:06:00.657Z,4.88
2023-05-12T00:08:28.771Z,4.13
2023-05-12T00:10:57.034Z,4.70
2023-05-12T00:13:25.328Z,4.90
2023-05-12T00:15:55.804Z,4.45
2023-05-12T00:18:24.041Z,4.00
2023-05-12T00:20:55.122Z,4.35
2023-05-12T00:23:23.889Z,3.60
2023-05-12T00:25:52.321Z,4.22
2023-05-12T00:28:20.420Z,4.25
2023-05-12T00:30:48.895Z,3.67
2023-05-12T00:33:17.213Z,3.83
2023-05-12T00:35:46.694Z,3.53
2023-05-12T00:38:16.131Z,3.65
2023-05-12T00:40:44.595Z,3.00
2023-05-12T00:43:12.772Z,3.60
2023-05-12T00:45:40.913Z,3.25
2023-05-12T00:48:09.535Z,3.45
2023-05-12T00:50:37.765Z,2.97
2023-05-12T00:53:07.582Z,2.88
2023-05-12T00:55:37.952Z,3.17
2023-05-12T00:58:07.422Z,3.17
2023-05-12T01:00:35.881Z,3.03
2023-05-12T01:03:04.952Z,3.17
2023-05-12T01:05:38.006Z,3.42
2023-05-12T01:08:07.632Z,3.58
2023-05-12T01:10:37.215Z,3.20
2023-05-12T01:13:05.306Z,3.50
2023-05-12T01:15:34.290Z,2.92
2023-05-12T01:18:06.238Z,3.50
2023-05-12T01:20:35.466Z,3.00
2023-05-12T01:23:04.878Z,3.60
2023-05-12T01:25:35.187Z,3.13
2023-05-12T01:28:05.350Z,3.22
2023-05-12T01:30:34.139Z,2.63
2023-05-12T01:33:02.728Z,3.03
2023-05-12T01:35:30.874Z,2.90
2023-05-12T01:37:59.276Z,3.30
2023-05-12T01:40:27.802Z,2.97
2023-05-12T01:42:56.296Z,3.45
2023-05-12T01:45:25.821Z,3.28
2023-05-12T01:47:54.318Z,2.58
2023-05-12T01:50:22.485Z,2.85
2023-05-12T01:52:50.645Z,2.90
2023-05-12T01:55:19.002Z,3.10
2023-05-12T01:57:47.106Z,3.05
2023-05-12T02:00:16.153Z,2.60
2023-05-12T02:02:46.314Z,2.55
2023-05-12T02:05:14.843Z,3.20
2023-05-12T02:07:42.916Z,3.13
2023-05-12T02:10:11.381Z,2.60
2023-05-12T02:12:39.906Z,3.20
2023-05-12T02:15:09.027Z,2.83
2023-05-12T02:17:37.231Z,3.38
2023-05-12T02:20:08.482Z,2.80
2023-05-12T02:22:36.552Z,2.88
2023-05-12T02:25:04.916Z,3.00
2023-05-12T02:27:32.985Z,2.80
2023-05-12T02:30:01.365Z,2.58
2023-05-12T02:32:29.776Z,3.17
2023-05-12T02:34:58.163Z,3.15
2023-05-12T02:37:27.606Z,2.90
2023-05-12T02:39:56.122Z,2.75
2023-05-12T02:42:24.595Z,2.38
2023-05-12T02:44:52.670Z,2.50
2023-05-12T02:47:20.739Z,2.67
2023-05-12T02:49:49.034Z,3.10
2023-05-12T02:52:17.120Z,2.95
2023-05-12T02:54:46.558Z,2.78
2023-05-12T02:57:14.969Z,2.97
2023-05-12T02:59:43.382Z,2.80
2023-05-12T03:02:11.628Z,3.00
2023-05-12T03:04:40.194Z,2.80
2023-05-12T03:07:08.751Z,2.40
2023-05-12T03:09:37.286Z,2.58
2023-05-12T03:12:07.863Z,2.58
2023-05-12T03:14:36.248Z,2.63
2023-05-12T03:17:04.717Z,2.70
2023-05-12T03:19:33.204Z,2.80
2023-05-12T03:22:01.312Z,3.05
2023-05-12T03:24:29.440Z,2.72
2023-05-12T03:26:57.818Z,2.97
2023-05-12T03:29:27.666Z,2.83
2023-05-12T03:31:55.763Z,2.50
2023-05-12T03:34:24.130Z,2.53
2023-05-12T03:36:52.255Z,2.67
2023-05-12T03:39:20.933Z,2.90
2023-05-12T03:41:49.137Z,2.58
2023-05-12T03:44:17.602Z,2.90
2023-05-12T03:46:47.140Z,3.17
2023-05-12T03:49:15.599Z,3.08
2023-05-12T03:51:43.692Z,3.45
2023-05-12T03:54:12.217Z,2.92
2023-05-12T03:56:40.606Z,2.67
2023-05-12T03:59:09.136Z,3.22
2023-05-12T04:01:37.258Z,3.30
2023-05-12T04:04:07.319Z,3.20
2023-05-12T04:06:36.943Z,2.95
2023-05-12T04:09:05.490Z,2.88
2023-05-12T04:11:33.565Z,3.13
2023-05-12T04:14:02.000Z,3.22
2023-05-12T04:16:30.402Z,3.30
2023-05-12T04:18:58.600Z,3.38
2023-05-12T04:21:28.200Z,3.75
2023-05-12T04:23:56.379Z,3.38
2023-05-12T04:26:24.738Z,3.35
2023-05-12T04:28:53.433Z,3.00
2023-05-12T04:31:21.900Z,2.85
2023-05-12T04:33:50.039Z,2.67
2023-05-12T04:36:18.441Z,2.88
2023-05-12T04:38:47.933Z,3.03
2023-05-12T04:41:16.319Z,3.50
2023-05-12T04:46:16.148Z,3.22
2023-05-12T04:48:44.543Z,3.22
2023-05-12T04:51:12.947Z,3.13
2023-05-12T04:53:41.050Z,3.63
2023-05-12T04:56:10.812Z,3.38
2023-05-12T04:58:38.875Z,3.15
2023-05-12T05:01:07.164Z,3.42
2023-05-12T05:03:35.697Z,2.92
2023-05-12T05:06:04.099Z,3.20
2023-05-12T05:08:32.224Z,3.28
2023-05-12T05:11:00.532Z,3.63
2023-05-12T05:13:29.967Z,3.28
2023-05-12T05:15:58.146Z,2.72
2023-05-12T05:18:27.008Z,3.30
2023-05-12T05:20:58.464Z,2.70
2023-05-12T05:23:27.292Z,2.70
2023-05-12T05:25:55.493Z,3.00
2023-05-12T05:28:23.553Z,3.08
2023-05-12T05:30:53.043Z,3.13
2023-05-12T05:33:21.341Z,3.20
2023-05-12T05:35:49.592Z,3.50
2023-05-12T05:38:17.865Z,3.03
2023-05-12T05:40:53.015Z,2.88
2023-05-12T05:43:22.058Z,3.33
2023-05-12T05:45:50.611Z,3.58
2023-05-12T05:48:20.103Z,3.45
2023-05-12T05:50:48.536Z,3.40
2023-05-12T05:53:18.408Z,3.63
2023-05-12T05:55:47.057Z,3.20
2023-05-12T05:58:15.257Z,3.65
2023-05-12T06:00:43.595Z,3.40
2023-05-12T06:03:12.339Z,2.75
2023-05-12T06:05:42.288Z,3.45
2023-05-12T06:08:13.176Z,3.60
2023-05-12T06:10:42.396Z,3.50
2023-05-12T06:13:10.997Z,3.55
2023-05-12T06:15:39.372Z,3.78
2023-05-12T06:18:07.562Z,3.55
2023-05-12T06:20:36.048Z,3.50
2023-05-12T06:23:05.964Z,3.97
2023-05-12T06:25:34.367Z,4.72
2023-05-12T06:28:02.931Z,3.88
2023-05-12T06:30:31.442Z,3.67
2023-05-12T06:32:59.600Z,3.75
2023-05-12T06:35:28.138Z,3.60
2023-05-12T06:37:56.234Z,3.92
2023-05-12T06:40:25.760Z,4.18
2023-05-12T06:42:53.854Z,4.13
2023-05-12T06:45:23.876Z,3.97
2023-05-12T06:47:52.157Z,4.10
2023-05-12T06:50:20.360Z,3.67
2023-05-12T06:52:48.761Z,3.70
2023-05-12T06:55:19.947Z,3.80
2023-05-12T06:57:51.838Z,3.83
2023-05-12T07:00:20.485Z,3.90
2023-05-12T07:02:48.958Z,3.47
2023-05-12T07:05:19.138Z,3.80
2023-05-12T07:07:47.411Z,3.42
2023-05-12T07:10:16.331Z,3.22
2023-05-12T07:12:44.508Z,3.65
2023-05-12T07:15:14.144Z,3.60
2023-05-12T07:17:42.552Z,4.05
2023-05-12T07:20:11.023Z,3.42
2023-05-12T07:22:39.356Z,3.63
2023-05-12T07:25:09.106Z,3.40
2023-05-12T07:27:37.570Z,3.95
2023-05-12T07:30:06.896Z,3.15
2023-05-12T07:32:36.957Z,3.00
2023-05-12T07:35:05.696Z,3.70
2023-05-12T07:37:34.073Z,3.45
2023-05-12T07:40:02.499Z,3.15
2023-05-12T07:42:30.602Z,3.63
2023-05-12T07:44:58.996Z,3.47
2023-05-12T07:47:28.808Z,3.30
2023-05-12T07:49:58.305Z,3.67
2023-05-12T07:52:26.811Z,3.75
2023-05-12T07:54:57.293Z,3.65
2023-05-12T07:57:25.886Z,3.80
2023-05-12T07:59:54.417Z,3.17
2023-05-12T08:02:23.023Z,3.80
2023-05-12T08:04:52.106Z,3.33
2023-05-12T08:07:21.596Z,3.90
2023-05-12T08:09:49.691Z,2.83
2023-05-12T08:12:17.762Z,3.80
2023-05-12T08:14:46.150Z,3.20
2023-05-12T08:17:14.747Z,3.33
2023-05-12T08:19:43.453Z,3.38
2023-05-12T08:22:11.540Z,3.33
2023-05-12T08:24:41.046Z,3.50
2023-05-12T08:27:09.451Z,3.70
2023-05-12T08:29:37.850Z,3.83
2023-05-12T08:32:06.763Z,3.17
2023-05-12T08:34:34.916Z,3.22
2023-05-12T08:37:03.086Z,3.60
2023-05-12T08:42:10.879Z,3.38
2023-05-12T08:44:39.799Z,3.30
2023-05-12T08:47:09.071Z,3.35
2023-05-12T08:49:40.462Z,3.17
2023-05-12T08:52:09.945Z,3.25
2023-05-12T08:54:48.614Z,4.80
2023-05-12T08:57:27.447Z,3.35
2023-05-12T08:59:59.676Z,2.90
2023-05-12T09:02:41.063Z,3.22
2023-05-12T09:05:17.323Z,2.70
2023-05-12T09:07:45.850Z,3.10
2023-05-12T09:10:32.969Z,2.70
2023-05-12T09:13:08.552Z,3.20
2023-05-12T09:15:42.717Z,3.00
2023-05-12T09:18:11.209Z,2.90
2023-05-12T09:20:39.332Z,3.28
2023-05-12T09:23:18.587Z,2.83
2023-05-12T09:25:48.200Z,3.30
2023-05-12T09:28:18.145Z,2.50
2023-05-12T09:30:46.231Z,3.10
2023-05-12T09:33:15.160Z,2.75
2023-05-12T09:35:45.270Z,2.70
2023-05-12T09:38:14.666Z,2.40
2023-05-12T09:40:43.425Z,3.15
2023-05-12T09:43:15.342Z,2.65
2023-05-12T09:45:47.614Z,3.30
2023-05-12T09:48:16.282Z,2.90
2023-05-12T09:50:47.686Z,3.28
2023-05-12T09:53:17.497Z,2.83
2023-05-12T09:55:46.506Z,3.00
2023-05-12T09:58:17.174Z,3.20
2023-05-12T10:03:22.094Z,2.25
2023-05-12T10:05:53.536Z,2.85
2023-05-12T10:08:25.271Z,2.10
2023-05-12T10:10:55.127Z,3.05
2023-05-12T10:13:25.381Z,2.40
2023-05-12T10:15:57.319Z,1.88
2023-05-12T10:18:25.819Z,2.15
2023-05-12T10:20:54.998Z,2.40
2023-05-12T10:23:24.940Z,2.33
2023-05-12T10:25:58.506Z,2.20
2023-05-12T10:28:26.929Z,2.25
2023-05-12T10:30:57.160Z,2.20
2023-05-12T10:33:25.389Z,1.95
2023-05-12T10:35:54.194Z,2.10
2023-05-12T10:38:22.735Z,1.80
2023-05-12T10:40:54.103Z,2.03
2023-05-12T10:43:25.132Z,2.15
2023-05-12T10:46:18.752Z,1.88
2023-05-12T10:48:58.073Z,1.95
2023-05-12T10:51:28.426Z,1.80
2023-05-12T10:53:59.390Z,1.95
2023-05-12T10:56:29.783Z,1.85
2023-05-12T10:59:09.212Z,2.00
2023-05-12T11:01:39.543Z,1.98
2023-05-12T11:04:13.172Z,1.77
2023-05-12T11:06:42.043Z,1.85
2023-05-12T11:09:13.201Z,1.92
2023-05-12T11:11:43.406Z,1.70
2023-05-12T11:14:11.967Z,2.03
2023-05-12T11:16:45.877Z,2.00
2023-05-12T11:19:14.202Z,2.20
2023-05-12T11:21:43.006Z,1.90
2023-05-12T11:24:14.666Z,1.88
2023-05-12T11:26:43.269Z,1.77
2023-05-12T11:29:11.381Z,1.98
2023-05-12T11:31:39.895Z,1.80
2023-05-12T11:34:12.991Z,1.55
2023-05-12T11:36:42.715Z,2.10
2023-05-12T11:39:16.577Z,1.70
2023-05-12T11:41:44.908Z,1.77
2023-05-12T11:44:17.190Z,1.50
2023-05-12T11:46:58.695Z,2.15
2023-05-12T11:49:29.428Z,1.90
2023-05-12T11:51:58.947Z,2.00
2023-05-12T11:54:29.810Z,2.28
2023-05-12T11:56:59.285Z,1.70
2023-05-12T11:59:30.049Z,1.63
2023-05-12T12:01:59.479Z,2.10
2023-05-12T12:04:36.383Z,1.90
2023-05-12T12:07:05.295Z,2.20
2023-05-12T12:09:37.744Z,1.80
2023-05-12T12:12:07.367Z,1.83
2023-05-12T12:14:38.077Z,2.10
2023-05-12T12:17:06.570Z,2.00
2023-05-12T12:19:36.355Z,1.83
2023-05-12T12:22:04.537Z,1.70
2023-05-12T12:24:33.345Z,1.83
2023-05-12T12:27:01.617Z,1.88
2023-05-12T12:29:30.156Z,1.60
2023-05-12T12:31:58.223Z,2.08
2023-05-12T12:34:26.383Z,1.70
2023-05-12T12:36:55.959Z,2.13
2023-05-12T12:39:24.141Z,1.67
2023-05-12T12:41:52.372Z,2.03
2023-05-12T12:44:21.051Z,2.20
2023-05-12T12:46:49.494Z,1.73
2023-05-12T12:49:17.627Z,1.80
2023-05-12T12:51:47.021Z,1.98
2023-05-12T12:54:16.772Z,2.05
2023-05-12T12:56:45.534Z,1.80
2023-05-12T12:59:13.661Z,1.63
2023-05-12T13:01:42.077Z,1.90
2023-05-12T13:04:10.506Z,1.85
2023-05-12T13:06:38.705Z,2.15
2023-05-12T13:09:06.801Z,1.83
2023-05-12T13:11:36.656Z,1.98
2023-05-12T13:14:04.979Z,2.00
2023-05-12T13:16:33.462Z,2.20
2023-05-12T13:19:01.589Z,1.73
2023-05-12T13:21:29.710Z,2.05
2023-05-12T13:23:57.830Z,2.00
2023-05-12T13:26:26.157Z,2.33
2023-05-12T13:28:55.730Z,1.92
2023-05-12T13:31:24.156Z,2.03
2023-05-12T13:33:53.404Z,2.10
2023-05-12T13:36:21.841Z,2.03
2023-05-12T13:38:50.219Z,1.65
2023-05-12T13:41:18.611Z,1.88
2023-05-12T13:43:46.745Z,1.63
2023-05-12T13:46:16.516Z,1.73
2023-05-12T13:48:44.771Z,1.90
2023-05-12T13:51:12.906Z,2.13
2023-05-12T13:53:41.701Z,2.28
2023-05-12T13:56:10.261Z,2.00
2023-05-12T13:58:38.458Z,1.83
2023-05-12T14:01:08.572Z,1.65
2023-05-12T14:03:38.993Z,1.95
2023-05-12T14:06:07.341Z,2.00
2023-05-12T14:08:35.597Z,1.70
2023-05-12T14:11:03.896Z,2.20
2023-05-12T14:13:32.272Z,1.80
2023-05-12T14:16:00.489Z,1.98
2023-05-12T14:18:28.746Z,1.52
2023-05-12T14:20:58.549Z,1.80
2023-05-12T14:23:26.887Z,1.70
2023-05-12T14:25:55.514Z,1.90
2023-05-12T14:28:24.532Z,2.10
2023-05-12T14:30:53.934Z,1.75
2023-05-12T14:33:22.506Z,1.80
2023-05-12T14:36:03.221Z,1.90
2023-05-12T14:38:36.483Z,2.00
2023-05-12T14:41:04.797Z,1.98
2023-05-12T14:43:32.927Z,1.80
2023-05-12T14:46:02.209Z,1.83
2023-05-12T14:48:30.659Z,1.63
2023-05-12T14:54:47.704Z,2.00
2023-05-12T14:57:15.820Z,2.00
2023-05-12T14:59:44.119Z,1.60
2023-05-12T15:02:12.354Z,1.70
2023-05-12T15:04:40.585Z,1.75
2023-05-12T15:07:08.679Z,1.65
2023-05-12T15:09:37.135Z,1.80
2023-05-12T15:12:07.475Z,1.80
2023-05-12T15:14:37.161Z,1.90
2023-05-12T15:17:05.669Z,1.98
2023-05-12T15:19:34.217Z,2.05
2023-05-12T15:22:02.330Z,1.92
2023-05-12T15:24:30.526Z,1.85
2023-05-12T15:26:58.821Z,1.67
2023-05-12T15:29:28.633Z,1.63
2023-05-12T15:31:57.297Z,1.65
2023-05-12T15:34:25.514Z,1.80
2023-05-12T15:36:54.212Z,1.60
2023-05-12T15:39:23.366Z,1.98
2023-05-12T15:41:51.969Z,1.80
2023-05-12T15:44:20.399Z,1.90
2023-05-12T15:46:50.363Z,2.00
2023-05-12T15:49:18.522Z,2.00
2023-05-12T15:51:46.684Z,2.08
2023-05-12T15:54:14.893Z,1.90
2023-05-12T15:56:43.423Z,1.60
2023-05-12T15:59:12.571Z,1.70
2023-05-12T16:01:40.717Z,1.75
2023-05-12T16:04:10.431Z,1.90
2023-05-12T16:06:38.668Z,2.08
2023-05-12T16:09:07.338Z,1.88
2023-05-12T16:11:35.742Z,1.90
2023-05-12T16:14:03.858Z,2.00
2023-05-12T16:16:32.694Z,2.20
2023-05-12T16:19:00.937Z,1.60
2023-05-12T16:21:30.503Z,1.77
2023-05-12T16:23:59.218Z,1.80
2023-05-12T16:26:27.866Z,1.65
2023-05-12T16:28:55.997Z,1.92
2023-05-12T16:31:24.127Z,1.63
2023-05-12T16:33:52.291Z,1.55
2023-05-12T16:36:20.686Z,2.17
2023-05-12T16:38:50.454Z,1.60
2023-05-12T16:41:18.843Z,1.60
2023-05-12T16:43:48.000Z,1.65
2023-05-12T16:46:16.255Z,1.55
2023-05-12T16:48:44.415Z,2.15
2023-05-12T16:51:12.527Z,1.98
2023-05-12T16:53:41.223Z,1.85
2023-05-12T16:56:10.774Z,1.80
2023-05-12T16:58:38.981Z,2.20
2023-05-12T17:01:07.241Z,2.10
2023-05-12T17:03:35.565Z,1.70
2023-05-12T17:06:04.079Z,2.10
2023-05-12T17:08:35.688Z,1.67
2023-05-12T17:11:04.095Z,1.90
2023-05-12T17:13:37.128Z,1.80
2023-05-12T17:16:06.073Z,1.60
2023-05-12T17:19:13.587Z,2.10
2023-05-12T17:21:22.425Z,2.35
2023-05-12T17:23:50.921Z,1.95
2023-05-12T17:26:19.087Z,1.85
2023-05-12T17:28:48.807Z,1.98
2023-05-12T17:31:17.003Z,2.08
2023-05-12T17:33:45.752Z,1.77
2023-05-12T17:36:13.984Z,1.90
2023-05-12T17:38:43.545Z,1.90
2023-05-12T17:41:11.717Z,1.80
2023-05-12T17:43:39.881Z,2.40
2023-05-12T17:48:51.493Z,1.67
2023-05-12T17:51:19.680Z,1.90
2023-05-12T17:53:47.852Z,1.80
2023-05-12T17:56:15.949Z,1.98
2023-05-12T17:58:44.145Z,1.67
2023-05-12T18:01:13.724Z,1.98
2023-05-12T18:03:41.966Z,1.92
2023-05-12T18:06:12.812Z,2.03
2023-05-12T18:08:40.972Z,1.80
2023-05-12T18:11:09.360Z,1.92
2023-05-12T18:13:37.913Z,1.98
2023-05-12T18:16:08.986Z,1.70
2023-05-12T18:18:46.824Z,1.75
2023-05-12T18:21:15.009Z,2.05
2023-05-12T18:23:43.164Z,2.08
2023-05-12T18:26:11.328Z,1.80
2023-05-12T18:28:39.468Z,2.03
2023-05-12T18:31:15.903Z,1.67
2023-05-12T18:33:47.698Z,1.70
2023-05-12T18:36:15.886Z,1.90
2023-05-12T18:38:44.120Z,1.88
2023-05-12T18:41:12.845Z,2.30
2023-05-12T18:43:41.908Z,1.88
2023-05-12T18:46:10.367Z,1.67
2023-05-12T18:48:38.493Z,1.90
2023-05-12T18:51:08.405Z,1.63
2023-05-12T18:53:36.636Z,2.20
2023-05-12T18:56:05.169Z,1.92
2023-05-12T18:58:33.310Z,1.73
2023-05-12T19:01:02.115Z,1.77
2023-05-12T19:03:32.196Z,2.17
2023-05-12T19:06:00.312Z,2.00
2023-05-12T19:08:30.254Z,2.05
2023-05-12T19:10:58.402Z,2.35
2023-05-12T19:13:27.222Z,1.73
2023-05-12T19:15:55.773Z,1.90
2023-05-12T19:18:23.904Z,1.88
2023-05-12T19:20:52.199Z,2.28
2023-05-12T19:23:20.545Z,1.77
2023-05-12T19:25:50.433Z,1.85
2023-05-12T19:28:18.557Z,2.47
2023-05-12T19:30:47.002Z,1.98
2023-05-12T19:33:17.239Z,2.20
2023-05-12T19:35:45.949Z,2.58
2023-05-12T19:38:14.079Z,2.15
2023-05-12T19:40:42.169Z,2.25
2023-05-12T19:43:12.933Z,2.15
2023-05-12T19:45:41.556Z,2.25
2023-05-12T19:48:10.125Z,2.00
2023-05-12T19:50:38.303Z,2.22
2023-05-12T19:53:06.714Z,2.05
2023-05-12T19:55:36.444Z,2.10
2023-05-12T19:58:04.554Z,2.15
2023-05-12T20:00:34.522Z,2.17
2023-05-12T20:03:05.210Z,1.70
2023-05-12T20:05:35.966Z,1.98
2023-05-12T20:08:04.409Z,2.10
2023-05-12T20:10:32.879Z,2.10
2023-05-12T20:13:03.391Z,2.17
2023-05-12T20:15:34.372Z,2.20
2023-05-12T20:18:02.803Z,2.13
2023-05-12T20:20:31.566Z,1.95
2023-05-12T20:22:59.686Z,1.77
2023-05-12T20:25:29.865Z,2.13
2023-05-12T20:27:58.427Z,2.17
2023-05-12T20:30:26.815Z,2.03
2023-05-12T20:32:56.481Z,2.15
2023-05-12T20:35:24.770Z,2.17
2023-05-12T20:37:52.925Z,3.20
2023-05-12T20:40:21.632Z,2.10
2023-05-12T20:42:50.541Z,2.03
2023-05-12T20:45:19.468Z,2.42
2023-05-12T20:47:47.653Z,2.00
2023-05-12T20:50:17.676Z,1.88
2023-05-12T20:52:47.436Z,2.17
2023-05-12T20:55:15.946Z,2.00
2023-05-12T20:57:44.079Z,1.95
2023-05-12T21:00:14.010Z,2.25
2023-05-12T21:02:42.173Z,1.92
2023-05-12T21:05:11.079Z,2.13
2023-05-12T21:07:41.301Z,2.35
2023-05-12T21:10:11.110Z,1.70
2023-05-12T21:12:39.922Z,2.13
2023-05-12T21:15:11.439Z,2.10
2023-05-12T21:17:40.623Z,1.70
2023-05-12T21:20:10.815Z,2.03
2023-05-12T21:22:42.009Z,2.10
2023-05-12T21:25:11.184Z,1.90
2023-05-12T21:27:40.851Z,2.10
2023-05-12T21:30:10.463Z,2.03
2023-05-12T21:32:39.731Z,2.20
2023-05-12T21:35:08.934Z,2.00
2023-05-12T21:37:37.395Z,2.00
2023-05-12T21:40:08.284Z,1.90
2023-05-12T21:42:36.489Z,2.40
2023-05-12T21:45:05.381Z,2.17
2023-05-12T21:47:33.501Z,1.80
2023-05-12T21:50:03.923Z,1.88
2023-05-12T21:52:32.446Z,2.17
2023-05-12T21:55:03.278Z,2.45
2023-05-12T21:57:32.818Z,2.30
2023-05-12T22:00:03.841Z,2.00
2023-05-12T22:02:32.146Z,2.47
2023-05-12T22:05:00.322Z,2.15
2023-05-12T22:07:29.815Z,2.08
2023-05-12T22:09:58.027Z,2.17
2023-05-12T22:12:26.232Z,2.05
2023-05-12T22:14:55.713Z,1.98
2023-05-12T22:17:24.180Z,2.05
2023-05-12T22:19:52.409Z,2.10
2023-05-12T22:22:20.963Z,2.35
2023-05-12T22:24:49.048Z,2.20
2023-05-12T22:27:21.530Z,2.30
2023-05-12T22:29:49.772Z,2.13
2023-05-12T22:32:19.664Z,1.98
2023-05-12T22:34:47.765Z,2.13
2023-05-12T22:37:16.347Z,2.25
2023-05-12T22:39:44.719Z,2.15
2023-05-12T22:42:12.855Z,2.05
2023-05-12T22:44:41.418Z,2.58
2023-05-12T22:47:09.545Z,2.33
2023-05-12T22:49:39.382Z,2.22
2023-05-12T22:52:08.254Z,2.15
2023-05-12T22:54:36.395Z,2.30
2023-05-12T22:57:04.961Z,2.58
2023-05-12T22:59:33.040Z,2.35
2023-05-12T23:02:01.748Z,2.00
2023-05-12T23:04:30.174Z,2.15
2023-05-12T23:07:00.030Z,2.20
2023-05-12T23:09:28.168Z,2.40
2023-05-12T23:11:56.348Z,2.25
2023-05-12T23:14:24.478Z,2.38
2023-05-12T23:16:52.732Z,2.22
2023-05-12T23:19:20.892Z,2.05
2023-05-12T23:21:49.064Z,2.22
2023-05-12T23:24:18.626Z,2.33
2023-05-12T23:26:47.023Z,2.55
2023-05-12T23:29:15.102Z,2.20
2023-05-12T23:31:43.400Z,2.30
2023-05-12T23:34:11.613Z,2.33
2023-05-12T23:36:40.019Z,2.58
2023-05-12T23:39:28.508Z,2.33
2023-05-12T23:41:58.289Z,2.58
2023-05-12T23:44:26.459Z,2.15
2023-05-12T23:46:54.615Z,2.38
2023-05-12T23:49:23.136Z,2.38
2023-05-12T23:51:51.550Z,2.30
2023-05-12T23:54:19.705Z,2.08
2023-05-12T23:56:47.821Z,2.20
2023-05-12T23:59:17.430Z,2.35
